Record high temperature 35.0°C Record low temperature -18.6°C Record high gust 29.9 m/s Record high average 28.7 m/s Record daily rain 64.6 mm Record low windchill -62.6°C Record high barometer 1046.9 hPa Record low barometer 812.0 hPa
Daily high pressure 1016.0 hPa Daily low pressure 1015.6 hPa Daily low windchill 14.1°C Daily high heat index 14.6°C Daily high gust speed 0.5 m/s WSW Daily high average speed 0.1 m/s WSW
Weerpagina Nieuwendam
LAST READING AT TIME: 00:42 DATE: 24 May 2024, time of next update: 06:42
Current WeatherNacht/Droog Current Temperature 14.1°C (57.3°F), Apparent temp 14.6°C
Maximum Temperature (since midnight)14.6°C at: 00:00 Minimum Temperature (since midnight)14.1°C at: 00:36
Average windspeed (ten minute)0.1 m/s Wind Direction (ten minute)WSW (247°)
Windchill Temperature 14.1°C Maximum Gust (last hour)1.6 m/s at: 23:45
Maximum Gust (since midnight)0.5 m/s at: 00:11 Maximum 1 minute average (since midnight)0.1 m/s at: 00:15
Rainfall (last hour)0.0 mm Rainfall (since midnight)0.0 mm (0.00 in.)---
Rainfall This month 62.2 mm (2.45 in.) Rainfall To date this year 364.5 mm (14.35 in.)
Maximum rain per minute (last hour)0.0 mm/min Maximum rain per hour (last 6 hours)0.0 mm/hour
Yesterdays rainfall 0.0 mm DewPoint 11.7°C (Wet Bulb :12.8°C )
Humidity 86 %, Humidex 16.2°C Barometer corrected to msl1016.0 hPa
Pressure change +0.4 hPa (last hour) Trend (last hour)STEADY
Pressure change (last 12 hours)+3.4 hPa Pressure change (last 6 hours)+2.2 hPa
Current solar 0 W/mē Current UV0.0
Maximum solar (since midnight) 0 W/mē Maximum UV (since midnight)0.0
Current 00:00 hours of sunshine today, current sky: Nacht/Droog
Sunshine hours for the year: 386:25 hrs Sunshine hours for the month: 130:02 hrs
Current evapotranspiration rate 0.4 mm per day. Yesterday's reading 3.2
Lightning counts 0 since noon
Time of last strike 16:45:50 2011/09/02Counts in the last 30 minutes 0


Click here for the last 24 hour graph
Click here for the last 48 hour graph
Click here for the last 72 hour graph
Click here for the month to date graph
Click here to listen to the current weather conditions

Weather report/warning/Metars

Amsterdam Airport Schiphol, Netherlands (EHAM) 52-18N 004-46E -2M
May 23, 2024 - 06:25 PM EDT / 2024.05.23 2225 UTC
Wind: from the SSE (160 degrees) at 6 MPH (5 KT):0
Visibility: greater than 7 mile(s):0
Sky conditions: mostly clear
Temperature: 55 F (13 C)
Dew Point: 51 F (11 C)
Relative Humidity: 87%
Pressure (altimeter): 30.03 in. Hg (1017 hPa)
ob: EHAM 232225Z 16005KT 9999 FEW029 13/11 Q1017 NOSIG
cycle: 22
Maastricht Airport Zuid Limburg, Netherlands (EHBK) 50-55N 005-47E 116M
May 23, 2024 - 06:25 PM EDT / 2024.05.23 2225 UTC
Wind: from the S (190 degrees) at 6 MPH (5 KT) (direction variable):0
Visibility: greater than 7 mile(s):0
Weather: thunder
Temperature: 59 F (15 C)
Dew Point: 55 F (13 C)
Relative Humidity: 87%
Pressure (altimeter): 30.03 in. Hg (1017 hPa)
ob: EHBK 232225Z AUTO 19005KT 140V220 9999 TS NSC 15/13 Q1017
cycle: 22
Eindhoven, Netherlands (EHEH) 51-27N 005-25E 28M
May 23, 2024 - 06:25 PM EDT / 2024.05.23 2225 UTC
Wind: from the S (190 degrees) at 1 MPH (1 KT):0
Visibility: greater than 7 mile(s):0
Sky conditions: mostly cloudy
Temperature: 53 F (12 C)
Dew Point: 51 F (11 C)
Relative Humidity: 93%
Pressure (altimeter): 30.03 in. Hg (1017 hPa)
ob: EHEH 232225Z AUTO 19001KT 9999 BKN200 12/11 Q1017 BLU
cycle: 22
Leeuwarden, Netherlands (EHLW) 53-13N 005-46E 11M
May 23, 2024 - 06:25 PM EDT / 2024.05.23 2225 UTC
Wind: from the SE (130 degrees) at 3 MPH (3 KT):0
Visibility: greater than 7 mile(s):0
Temperature: 53 F (12 C)
Dew Point: 51 F (11 C)
Relative Humidity: 93%
Pressure (altimeter): 30.03 in. Hg (1017 hPa)
ob: EHLW 232225Z AUTO 13003KT 9999 NCD 12/11 Q1017 BLU
cycle: 22

Daily Fire weather Index for this station

Click here for a daily update of the averages/extremes to date for the month


The data is logged at two minute intervals, but there is data recorded every minute. Best viewed in 800 x 600 and True colour.

This page has AUTO RELOAD facility for the latest data.











This page is updated from recent data collected by a La Crosse 2010 weather station
Use the Reload or Refresh
facility on your browser to retrieve the latest data.










email de weerman



Created by "Weather Display" software version 10.37S at this start time/date 12:54:00 15-5-2024
if(typeof(urchinTracker)!='function')document.write('')